Time;durP1;ratioP1;P1;durP2;ratioP2;P2;SDS_P1;SDS_P2;PMS_P1;PMS_P2;Temp;Humidity;BMP_temperature;BMP_pressure;BME280_temperature;BME280_humidity;BME280_pressure;Samples;Min_cycle;Max_cycle;Signal;HPM_P1;HPM_P2
2023/04/18 00:00:48;;;;;;;5.77;2.60;;;;;;;14.45;68.62;99694.50;4447983;32;33939;-77
2023/04/18 00:03:16;;;;;;;5.03;2.53;;;;;;;14.02;69.94;99695.84;4451332;32;34380;-79
2023/04/18 00:05:47;;;;;;;4.68;2.62;;;;;;;14.50;68.75;99695.47;4452186;32;33402;-76
2023/04/18 00:08:14;;;;;;;5.12;2.65;;;;;;;14.20;69.56;99699.00;4452327;32;33631;-76
2023/04/18 00:10:42;;;;;;;4.65;2.70;;;;;;;14.71;67.63;99698.69;4454290;32;32644;-76
2023/04/18 00:13:10;;;;;;;6.60;2.70;;;;;;;14.32;68.99;99698.47;4467593;32;33920;-77
2023/04/18 00:15:38;;;;;;;4.62;2.60;;;;;;;14.26;69.78;99704.37;4460985;32;33676;-79
2023/04/18 00:18:07;;;;;;;4.62;2.83;;;;;;;14.63;68.58;99701.94;4464214;32;34117;-78
2023/04/18 00:20:37;;;;;;;4.95;2.67;;;;;;;14.58;69.23;99707.03;4466133;32;33114;-78
2023/04/18 00:23:06;;;;;;;4.80;2.80;;;;;;;14.93;68.75;99707.06;4458238;32;34429;-77
2023/04/18 00:25:34;;;;;;;5.40;2.90;;;;;;;15.25;67.37;99696.56;4467511;32;33151;-79
2023/04/18 00:28:03;;;;;;;5.37;3.00;;;;;;;15.18;67.96;99710.28;4467463;32;33734;-77
2023/04/18 00:30:32;;;;;;;5.45;2.90;;;;;;;15.11;67.91;99706.66;4467350;32;33228;-78
2023/04/18 00:33:00;;;;;;;5.03;3.03;;;;;;;15.40;66.85;99704.75;4462304;32;32220;-79
2023/04/18 00:35:27;;;;;;;6.72;3.12;;;;;;;15.53;66.33;99704.22;4467175;32;33848;-78
2023/04/18 00:37:55;;;;;;;5.63;3.00;;;;;;;14.57;68.26;99705.28;4467531;32;35074;-79
2023/04/18 00:40:23;;;;;;;5.70;3.20;;;;;;;14.49;68.33;99701.53;4467147;32;32805;-77
2023/04/18 00:42:50;;;;;;;5.20;3.20;;;;;;;14.61;67.72;99707.12;4463774;32;33439;-78
2023/04/18 00:45:18;;;;;;;5.85;3.05;;;;;;;14.36;68.15;99701.19;4457116;32;33648;-78
2023/04/18 00:47:45;;;;;;;5.50;3.50;;;;;;;14.18;68.64;99703.28;4452191;32;33867;-77
2023/04/18 00:50:13;;;;;;;5.90;3.27;;;;;;;13.83;69.51;99691.81;4467113;32;33329;-78
2023/04/18 00:52:43;;;;;;;5.90;3.28;;;;;;;13.53;70.46;99695.28;4467046;32;33451;-77
2023/04/18 00:55:10;;;;;;;6.47;3.85;;;;;;;13.63;70.58;99693.84;4457600;32;33504;-76
2023/04/18 00:57:38;;;;;;;5.40;3.50;;;;;;;13.38;71.39;99693.06;4466302;32;34760;-79
2023/04/18 01:00:09;;;;;;;5.43;3.42;;;;;;;14.08;68.95;99694.34;4458225;32;33206;-77
2023/04/18 01:02:38;;;;;;;5.75;3.50;;;;;;;13.69;70.18;99689.69;4466694;32;33490;-78
2023/04/18 01:05:06;;;;;;;6.60;3.37;;;;;;;13.80;69.73;99690.03;4466790;32;34468;-77
2023/04/18 01:07:36;;;;;;;6.60;3.50;;;;;;;13.66;70.09;99678.31;4456734;32;33694;-78
2023/04/18 01:10:04;;;;;;;5.53;3.70;;;;;;;13.45;70.94;99691.56;4466294;32;33708;-78
2023/04/18 01:12:31;;;;;;;6.12;3.75;;;;;;;13.71;69.98;99687.13;4456374;32;31974;-77
2023/04/18 01:14:59;;;;;;;6.37;3.62;;;;;;;13.76;69.58;99688.16;4465893;32;34992;-77
2023/04/18 01:17:28;;;;;;;6.07;3.60;;;;;;;13.61;70.11;99691.19;4466617;32;33661;-77
2023/04/18 01:19:56;;;;;;;6.00;3.45;;;;;;;13.75;69.87;99684.69;4466650;32;33315;-77
2023/04/18 01:22:27;;;;;;;5.55;3.53;;;;;;;13.61;70.08;99692.91;4456077;32;33748;-76
2023/04/18 01:24:58;;;;;;;6.28;3.75;;;;;;;14.01;68.95;99691.50;4466587;32;33387;-76
2023/04/18 01:27:26;;;;;;;5.97;3.50;;;;;;;13.76;69.64;99704.66;4466719;32;33918;-77
2023/04/18 01:29:53;;;;;;;6.25;3.78;;;;;;;13.77;69.53;99697.72;4467088;32;33015;-77
2023/04/18 01:32:21;;;;;;;5.47;3.40;;;;;;;13.74;69.77;99697.66;4466462;32;35527;-78
2023/04/18 01:34:48;;;;;;;6.05;3.55;;;;;;;13.52;70.35;99702.19;4468310;32;33936;-78
2023/04/18 01:37:16;;;;;;;6.35;3.60;;;;;;;13.49;70.68;99696.00;4467544;32;32983;-79
2023/04/18 01:39:44;;;;;;;5.87;3.60;;;;;;;13.47;70.66;99702.91;4467051;32;32435;-77
2023/04/18 01:42:11;;;;;;;7.15;3.92;;;;;;;13.50;70.49;99702.97;4459656;32;34148;-76
2023/04/18 01:44:38;;;;;;;6.10;4.10;;;;;;;13.50;70.44;99709.09;4465486;32;33185;-76
2023/04/18 01:47:06;;;;;;;6.37;3.90;;;;;;;13.68;69.71;99697.47;4467509;32;33825;-76
2023/04/18 01:49:33;;;;;;;5.55;3.37;;;;;;;13.50;70.41;99697.75;4467188;32;33942;-79
2023/04/18 01:52:01;;;;;;;5.85;3.90;;;;;;;13.56;70.28;99705.78;4467413;32;33664;-76
2023/04/18 01:54:29;;;;;;;6.65;4.03;;;;;;;13.48;71.20;99708.16;4454807;32;34536;-78
2023/04/18 01:56:56;;;;;;;6.60;4.03;;;;;;;13.57;71.55;99702.34;4463068;32;33500;-76
2023/04/18 01:59:24;;;;;;;6.62;3.90;;;;;;;13.76;70.85;99699.44;4470295;32;33015;-76
2023/04/18 02:01:51;;;;;;;7.22;4.30;;;;;;;13.68;71.92;99708.75;4467818;32;33781;-78
2023/04/18 02:04:19;;;;;;;7.43;4.37;;;;;;;13.68;72.17;99697.47;4468215;32;33812;-77
2023/04/18 02:06:47;;;;;;;6.80;4.47;;;;;;;13.83;71.03;99708.34;4454202;32;34683;-76
2023/04/18 02:09:14;;;;;;;6.80;4.55;;;;;;;13.45;73.25;99704.56;4461430;32;33846;-75
2023/04/18 02:11:42;;;;;;;6.35;4.12;;;;;;;13.34;73.40;99712.88;4462097;32;33399;-75
2023/04/18 02:14:09;;;;;;;7.45;4.28;;;;;;;13.04;74.03;99711.84;4455349;32;34457;-76
2023/04/18 02:16:37;;;;;;;8.13;4.62;;;;;;;12.94;74.29;99715.84;4465758;32;33673;-76
2023/04/18 02:19:05;;;;;;;6.95;4.50;;;;;;;13.20;73.36;99718.47;4467951;32;33324;-75
2023/04/18 02:21:33;;;;;;;8.00;4.57;;;;;;;13.08;73.47;99714.62;4461714;32;33759;-76
2023/04/18 02:24:01;;;;;;;6.87;4.43;;;;;;;13.30;72.96;99712.75;4467582;32;33989;-78
2023/04/18 02:26:28;;;;;;;6.97;4.62;;;;;;;13.29;72.64;99718.75;4455463;32;34379;-76
2023/04/18 02:28:57;;;;;;;6.50;4.30;;;;;;;13.55;71.35;99714.41;4465023;32;32924;-76
2023/04/18 02:31:25;;;;;;;6.97;4.55;;;;;;;13.54;71.30;99705.72;4467946;32;33790;-77
2023/04/18 02:33:53;;;;;;;7.00;4.47;;;;;;;13.45;71.55;99707.16;4457213;32;33731;-76
2023/04/18 02:36:22;;;;;;;6.47;4.37;;;;;;;13.48;71.20;99715.97;4465980;32;34566;-76
2023/04/18 02:38:49;;;;;;;6.37;4.35;;;;;;;13.30;71.79;99704.94;4467428;32;33456;-77
2023/04/18 02:41:19;;;;;;;7.55;4.80;;;;;;;13.56;71.14;99714.47;4467885;32;33226;-77
2023/04/18 02:43:47;;;;;;;7.82;5.03;;;;;;;13.48;71.86;99710.75;4457948;32;34265;-76
2023/04/18 02:46:15;;;;;;;7.57;4.65;;;;;;;13.36;71.75;99716.41;4465552;32;34278;-76
2023/04/18 02:48:44;;;;;;;7.80;4.70;;;;;;;13.47;71.43;99711.56;4467309;32;32795;-77
2023/04/18 02:51:12;;;;;;;7.12;4.45;;;;;;;13.51;71.19;99710.84;4467764;32;34429;-77
2023/04/18 02:53:40;;;;;;;7.15;4.30;;;;;;;13.38;71.74;99708.66;4467584;32;33782;-77
2023/04/18 02:56:08;;;;;;;6.82;4.55;;;;;;;13.51;70.97;99720.38;4467053;32;33603;-78
2023/04/18 02:58:37;;;;;;;7.45;4.60;;;;;;;13.26;72.16;99729.06;4453299;32;32264;-78
2023/04/18 03:01:06;;;;;;;7.53;4.60;;;;;;;13.37;71.42;99723.41;4467133;32;33603;-76
2023/04/18 03:03:36;;;;;;;7.62;4.45;;;;;;;13.83;69.72;99721.38;4468325;32;32965;-77
2023/04/18 03:06:05;;;;;;;8.02;5.05;;;;;;;13.85;69.49;99727.50;4454190;32;34192;-77
2023/04/18 03:08:33;;;;;;;7.10;4.53;;;;;;;14.29;68.46;99735.75;4468262;32;33874;-77
2023/04/18 03:11:00;;;;;;;7.75;4.82;;;;;;;14.09;68.95;99731.66;4472356;32;34178;-78
2023/04/18 03:13:29;;;;;;;7.72;4.82;;;;;;;14.52;67.39;99740.72;4476573;32;34364;-79
2023/04/18 03:15:57;;;;;;;7.20;4.80;;;;;;;14.75;67.14;99744.84;4452779;32;34381;-76
2023/04/18 03:18:25;;;;;;;8.48;5.15;;;;;;;14.81;68.38;99748.47;4479633;32;32151;-79
2023/04/18 03:20:53;;;;;;;7.32;4.90;;;;;;;15.18;67.04;99747.69;4464337;32;33833;-76
2023/04/18 03:23:21;;;;;;;6.70;4.95;;;;;;;14.98;68.87;99736.75;4475634;32;35422;-79
2023/04/18 03:25:49;;;;;;;8.00;5.18;;;;;;;14.93;69.28;99748.78;4462137;32;34414;-78
2023/04/18 03:28:16;;;;;;;7.75;5.03;;;;;;;14.68;70.55;99742.03;4480890;32;33463;-77
2023/04/18 03:30:44;;;;;;;8.10;5.18;;;;;;;14.74;69.67;99745.72;4466592;32;33692;-78
2023/04/18 03:33:13;;;;;;;7.78;5.35;;;;;;;14.60;70.44;99741.81;4457719;32;34545;-79
2023/04/18 03:35:42;;;;;;;8.23;5.37;;;;;;;14.87;69.08;99748.63;4465843;32;33740;-78
2023/04/18 03:38:09;;;;;;;7.95;4.93;;;;;;;14.82;70.00;99747.66;4457775;32;33185;-79
2023/04/18 03:40:37;;;;;;;7.95;5.32;;;;;;;14.73;70.54;99746.53;4463201;32;32599;-80
2023/04/18 03:43:05;;;;;;;7.80;5.10;;;;;;;14.55;70.57;99746.03;4463505;32;34301;-76
2023/04/18 03:45:33;;;;;;;9.60;5.57;;;;;;;14.84;70.18;99753.78;4468973;32;33889;-76
2023/04/18 03:48:00;;;;;;;9.03;5.77;;;;;;;14.21;72.65;99744.16;4469020;32;33119;-78
2023/04/18 03:50:29;;;;;;;8.48;5.75;;;;;;;13.56;75.16;99745.69;4466019;32;33731;-78
2023/04/18 03:52:57;;;;;;;8.32;5.78;;;;;;;14.16;72.96;99746.66;4467599;32;33811;-78
2023/04/18 03:55:25;;;;;;;9.18;5.60;;;;;;;14.50;72.20;99747.59;4460005;32;33617;-76
2023/04/18 03:57:52;;;;;;;8.00;5.20;;;;;;;14.29;73.93;99746.16;4471720;32;33443;-76
2023/04/18 04:00:21;;;;;;;8.43;5.55;;;;;;;14.96;68.06;99746.28;4480450;32;34355;-79
2023/04/18 04:02:49;;;;;;;8.27;5.60;;;;;;;14.42;70.73;99751.72;4479560;32;34163;-78
2023/04/18 04:05:18;;;;;;;8.37;5.40;;;;;;;14.15;72.40;99747.47;4460704;32;32223;-76
2023/04/18 04:07:46;;;;;;;8.23;5.45;;;;;;;13.81;72.17;99751.69;4473323;32;33384;-77
2023/04/18 04:10:14;;;;;;;8.77;5.62;;;;;;;14.03;71.42;99752.34;4466874;32;34308;-77
2023/04/18 04:12:41;;;;;;;8.52;5.45;;;;;;;13.63;72.61;99761.50;4465466;32;32191;-75
2023/04/18 04:15:09;;;;;;;7.87;5.30;;;;;;;13.53;73.16;99755.13;4461384;32;33974;-77
2023/04/18 04:17:38;;;;;;;8.70;5.65;;;;;;;13.55;73.07;99759.53;4461065;32;33268;-76
2023/04/18 04:20:06;;;;;;;8.45;5.78;;;;;;;13.34;73.60;99770.13;4467969;32;34521;-76
2023/04/18 04:22:35;;;;;;;8.03;5.40;;;;;;;13.25;73.97;99768.91;4467233;32;34388;-76
2023/04/18 04:25:04;;;;;;;8.90;5.82;;;;;;;13.31;73.89;99763.97;4466629;32;33228;-78
2023/04/18 04:27:35;;;;;;;8.00;5.45;;;;;;;13.36;73.92;99767.59;4467185;32;34067;-77
2023/04/18 04:30:05;;;;;;;7.71;5.26;;;;;;;13.15;74.67;99772.91;4466065;32;33181;-76
2023/04/18 04:32:34;;;;;;;7.45;5.03;;;;;;;13.25;74.23;99766.31;4465712;32;34473;-77
2023/04/18 04:35:01;;;;;;;8.68;5.22;;;;;;;13.35;74.03;99773.63;4467134;32;33776;-75
2023/04/18 04:37:29;;;;;;;8.18;5.40;;;;;;;13.59;72.80;99770.94;4465356;32;33047;-77
2023/04/18 04:39:59;;;;;;;7.43;5.15;;;;;;;13.36;73.71;99777.97;4461766;32;33775;-76
2023/04/18 04:42:28;;;;;;;8.68;5.10;;;;;;;13.76;72.45;99779.28;4461670;32;33603;-77
2023/04/18 04:44:56;;;;;;;8.38;4.95;;;;;;;13.49;72.37;99785.38;4465531;32;32740;-78
2023/04/18 04:47:24;;;;;;;7.72;4.95;;;;;;;13.62;72.21;99771.03;4460384;32;33119;-78
2023/04/18 04:49:53;;;;;;;8.50;5.50;;;;;;;13.98;70.63;99785.16;4466257;32;33589;-77
2023/04/18 04:52:20;;;;;;;7.47;5.07;;;;;;;14.03;69.86;99778.38;4466861;32;34079;-77
2023/04/18 04:54:50;;;;;;;7.80;5.00;;;;;;;13.64;71.96;99781.50;4466630;32;33289;-76
2023/04/18 04:57:18;;;;;;;7.97;5.10;;;;;;;13.80;71.63;99783.75;4452182;32;33126;-76
2023/04/18 04:59:45;;;;;;;9.27;4.95;;;;;;;13.52;72.04;99779.37;4467015;32;33291;-76
2023/04/18 05:02:13;;;;;;;7.25;4.45;;;;;;;13.72;71.50;99787.84;4462632;32;33659;-78
2023/04/18 05:04:53;;;;;;;6.50;4.00;;;;;;;13.35;72.15;99787.50;4466841;32;33230;-75
2023/04/18 05:07:21;;;;;;;6.00;3.50;;;;;;;13.80;70.65;99794.16;4460309;32;33587;-77
2023/04/18 05:09:48;;;;;;;6.25;3.65;;;;;;;13.30;72.08;99789.06;4466665;32;33152;-75
2023/04/18 05:12:16;;;;;;;5.60;3.33;;;;;;;13.28;72.42;99795.91;4454383;32;33680;-77
2023/04/18 05:14:44;;;;;;;5.30;3.00;;;;;;;13.91;70.26;99790.19;4465230;32;33631;-76
2023/04/18 05:17:11;;;;;;;6.12;3.72;;;;;;;13.53;72.26;99800.25;4466595;32;33506;-78
2023/04/18 05:19:39;;;;;;;6.32;3.62;;;;;;;13.32;74.33;99796.94;4466307;32;34185;-78
2023/04/18 05:22:07;;;;;;;7.67;3.73;;;;;;;13.75;73.47;99798.31;4465455;32;33837;-77
2023/04/18 05:24:34;;;;;;;6.43;3.70;;;;;;;13.49;73.77;99803.56;4465755;32;34062;-76
2023/04/18 05:27:02;;;;;;;7.43;3.90;;;;;;;13.59;73.43;99796.97;4460828;32;32798;-77
2023/04/18 05:29:30;;;;;;;5.90;3.58;;;;;;;13.90;73.09;99804.00;4464566;32;33614;-76
2023/04/18 05:31:57;;;;;;;7.80;3.83;;;;;;;13.48;72.22;99801.81;4466523;32;34511;-77
2023/04/18 05:34:26;;;;;;;6.45;3.97;;;;;;;13.57;73.41;99809.91;4450593;32;32026;-76
2023/04/18 05:36:54;;;;;;;6.55;3.97;;;;;;;13.68;72.59;99807.69;4461542;32;33121;-78
2023/04/18 05:39:21;;;;;;;6.05;4.07;;;;;;;13.66;73.33;99808.47;4466619;32;33795;-77
2023/04/18 05:41:49;;;;;;;7.53;4.70;;;;;;;13.88;72.63;99810.91;4465995;32;33876;-76
2023/04/18 05:44:16;;;;;;;9.10;5.05;;;;;;;14.35;70.92;99813.19;4463826;32;33347;-76
2023/04/18 05:46:45;;;;;;;7.60;5.12;;;;;;;14.10;72.28;99817.69;4466196;32;33037;-76
2023/04/18 05:49:13;;;;;;;8.68;5.25;;;;;;;14.39;71.33;99825.50;4466115;32;34472;-77
2023/04/18 05:51:41;;;;;;;8.38;5.50;;;;;;;14.63;70.16;99817.53;4456605;32;34586;-76
2023/04/18 05:54:08;;;;;;;8.90;5.72;;;;;;;15.13;69.15;99818.03;4464245;32;34588;-78
2023/04/18 05:56:36;;;;;;;9.63;6.32;;;;;;;14.87;70.64;99824.25;4466235;32;33581;-77
2023/04/18 05:59:04;;;;;;;9.70;6.20;;;;;;;14.36;73.59;99814.97;4465666;32;34085;-76
2023/04/18 06:01:32;;;;;;;9.88;6.25;;;;;;;15.46;70.71;99817.16;4466066;32;34671;-78
2023/04/18 06:04:00;;;;;;;8.77;5.93;;;;;;;15.11;71.44;99822.34;4456076;32;33957;-76
2023/04/18 06:06:28;;;;;;;10.38;6.18;;;;;;;15.44;69.59;99821.44;4465414;32;33136;-77
2023/04/18 06:08:55;;;;;;;8.68;6.03;;;;;;;15.32;70.16;99826.37;4453564;32;34417;-77
2023/04/18 06:11:23;;;;;;;;;;;;;;;15.06;70.52;99820.44;4467042;32;33826;-76
2023/04/18 06:13:50;;;;;;;;;;;;;;;15.26;70.65;99823.56;4468136;32;35032;-76
2023/04/18 06:16:17;;;;;;;;;;;;;;;15.50;68.81;99829.44;4460270;32;33328;-76
2023/04/18 06:18:45;;;;;;;;;;;;;;;14.78;71.19;99826.66;4469439;32;34834;-76
2023/04/18 06:21:12;;;;;;;;;;;;;;;15.04;69.88;99833.44;4457301;32;33780;-76
2023/04/18 06:23:39;;;;;;;;;;;;;;;14.62;71.09;99828.81;4469789;32;34864;-77
2023/04/18 06:26:08;;;;;;;;;;;;;;;14.71;71.63;99833.37;4469787;32;33219;-76
2023/04/18 06:28:35;;;;;;;;;;;;;;;14.32;71.91;99836.56;4460254;32;33590;-76
2023/04/18 06:31:02;;;;;;;;;;;;;;;14.45;72.24;99830.88;4469680;32;34272;-76
2023/04/18 06:33:29;;;;;;;;;;;;;;;13.87;70.26;99835.19;4469904;32;34278;-76
2023/04/18 06:35:57;;;;;;;;;;;;;;;14.21;70.60;99833.63;4470163;32;32713;-76
2023/04/18 06:38:24;;;;;;;;;;;;;;;14.45;69.22;99827.41;4467368;32;33314;-76
2023/04/18 06:40:52;;;;;;;;;;;;;;;14.05;68.86;99828.78;4469694;32;33582;-76
2023/04/18 06:43:20;;;;;;;;;;;;;;;14.26;67.18;99837.25;4466106;32;34154;-76
2023/04/18 06:45:48;;;;;;;;;;;;;;;14.27;67.39;99833.78;4469969;32;33855;-78
2023/04/18 06:48:15;;;;;;;;;;;;;;;14.82;65.05;99836.31;4469680;32;33555;-75
2023/04/18 06:50:42;;;;;;;;;;;;;;;14.44;64.74;99838.66;4469794;32;34241;-76
2023/04/18 06:53:09;;;;;;;;;;;;;;;14.69;63.50;99835.94;4469942;32;34289;-75
2023/04/18 06:55:37;;;;;;;;;;;;;;;14.42;64.04;99845.53;4469264;32;34105;-76
2023/04/18 06:58:04;;;;;;;;;;;;;;;14.74;62.94;99843.91;4459424;32;34880;-76
2023/04/18 07:00:31;;;;;;;;;;;;;;;14.87;63.33;99846.03;4467697;32;34783;-77
2023/04/18 07:03:00;;;;;;;;;;;;;;;14.90;62.30;99845.22;4467116;32;34299;-77
2023/04/18 07:05:28;;;;;;;;;;;;;;;14.58;64.38;99842.56;4469026;32;33234;-76
2023/04/18 07:07:55;;;;;;;;;;;;;;;14.88;62.87;99846.91;4457083;32;33908;-76
2023/04/18 07:10:23;;;;;;;3.47;1.30;;;;;;;14.96;62.99;99850.59;4466989;32;34878;-76
2023/04/18 07:12:52;;;;;;;3.03;1.30;;;;;;;15.21;62.58;99853.91;4466949;32;34544;-74
2023/04/18 07:15:20;;;;;;;6.15;1.90;;;;;;;15.32;61.78;99849.84;4465944;32;33249;-74
2023/04/18 07:17:48;;;;;;;6.05;2.05;;;;;;;15.41;61.79;99850.06;4467858;32;34480;-75
2023/04/18 07:20:15;;;;;;;4.70;2.28;;;;;;;15.50;61.49;99860.75;4442906;32;34219;-76
2023/04/18 07:22:43;;;;;;;4.20;1.85;;;;;;;15.44;61.57;99860.59;4467559;32;34276;-77
2023/04/18 07:25:11;;;;;;;5.28;2.15;;;;;;;15.46;60.13;99851.09;4449571;32;33329;-75
2023/04/18 07:27:39;;;;;;;4.35;2.30;;;;;;;15.86;58.99;99859.97;4466124;32;33274;-76
2023/04/18 07:30:08;;;;;;;4.25;2.20;;;;;;;15.84;59.17;99850.28;4466936;32;33602;-76
2023/04/18 07:32:35;;;;;;;4.90;2.12;;;;;;;16.05;57.79;99847.31;4466337;32;33426;-74
2023/04/18 07:35:03;;;;;;;4.62;2.28;;;;;;;15.94;59.35;99859.25;4467315;32;34257;-78
2023/04/18 07:37:30;;;;;;;5.00;2.22;;;;;;;16.37;57.50;99858.50;4466541;32;33409;-76
2023/04/18 07:39:58;;;;;;;4.45;2.28;;;;;;;16.50;56.87;99854.44;4456191;32;33678;-75
2023/04/18 07:42:26;;;;;;;6.20;2.62;;;;;;;16.89;55.87;99859.66;4467281;32;33879;-75
2023/04/18 07:44:59;;;;;;;4.95;2.37;;;;;;;16.77;58.07;99863.72;4464957;32;33915;-75
2023/04/18 07:47:27;;;;;;;3.97;2.10;;;;;;;16.92;56.39;99861.47;4457768;32;31778;-77
2023/04/18 07:49:57;;;;;;;4.87;2.30;;;;;;;17.03;56.16;99873.00;4462534;32;32563;-75
2023/04/18 07:52:25;;;;;;;4.30;1.95;;;;;;;17.29;55.50;99870.03;4444784;32;33943;-77
2023/04/18 07:54:52;;;;;;;5.25;2.05;;;;;;;17.09;54.64;99878.37;4465148;32;33409;-74
2023/04/18 07:57:20;;;;;;;4.85;2.20;;;;;;;17.18;54.17;99866.31;4460879;32;33832;-78
2023/04/18 07:59:51;;;;;;;4.50;2.12;;;;;;;17.06;55.61;99867.84;4458253;32;34622;-76
2023/04/18 08:02:20;;;;;;;4.87;2.17;;;;;;;17.43;54.53;99872.88;4466654;32;33505;-75
2023/04/18 08:04:48;;;;;;;3.92;1.90;;;;;;;18.39;52.74;99870.97;4454620;32;33147;-77
2023/04/18 08:07:16;;;;;;;4.32;2.03;;;;;;;18.45;52.98;99878.94;4465011;32;33663;-79
2023/04/18 08:09:44;;;;;;;4.62;1.80;;;;;;;19.08;50.20;99872.75;4464850;32;34574;-75
2023/04/18 08:12:11;;;;;;;4.37;2.05;;;;;;;18.85;51.01;99870.72;4450245;32;34452;-76
2023/04/18 08:14:40;;;;;;;4.62;2.05;;;;;;;18.74;50.30;99873.19;4451686;32;33760;-76
2023/04/18 08:17:07;;;;;;;4.32;2.00;;;;;;;18.89;50.48;99875.19;4452035;32;34244;-74
2023/04/18 08:19:35;;;;;;;4.93;2.15;;;;;;;18.42;51.09;99881.50;4452083;32;33879;-77
2023/04/18 08:22:08;;;;;;;3.85;1.90;;;;;;;18.33;50.88;99875.25;4452276;32;34507;-76
2023/04/18 08:24:39;;;;;;;4.93;2.20;;;;;;;18.07;52.36;99880.97;4438225;32;35255;-78
2023/04/18 08:27:17;;;;;;;5.10;2.20;;;;;;;17.95;53.38;99888.66;4450663;32;31519;-77
2023/04/18 08:29:45;;;;;;;5.50;2.00;;;;;;;18.10;51.82;99886.28;4450483;32;33216;-74
2023/04/18 08:32:13;;;;;;;3.65;1.83;;;;;;;18.19;52.21;99894.25;4451550;32;33986;-77
2023/04/18 08:34:41;;;;;;;3.75;1.70;;;;;;;18.14;51.47;99885.47;4452055;32;33945;-77
2023/04/18 08:37:09;;;;;;;4.43;1.87;;;;;;;18.04;52.31;99891.41;4451024;32;33514;-75
2023/04/18 08:39:37;;;;;;;5.35;1.75;;;;;;;18.21;50.82;99891.66;4450319;32;33676;-75
2023/04/18 08:42:05;;;;;;;5.55;2.35;;;;;;;17.42;52.47;99887.72;4451516;32;34006;-77
2023/04/18 08:44:33;;;;;;;4.03;1.80;;;;;;;17.53;53.06;99894.87;4447006;32;33974;-76
2023/04/18 08:47:00;;;;;;;4.60;1.93;;;;;;;18.00;50.89;99887.88;4447633;32;33302;-77
2023/04/18 08:49:30;;;;;;;4.05;1.85;;;;;;;17.53;53.12;99889.66;4444829;32;33812;-74
2023/04/18 08:51:59;;;;;;;5.78;2.10;;;;;;;17.81;52.16;99891.91;4451810;32;33432;-76
2023/04/18 08:54:29;;;;;;;4.50;2.00;;;;;;;18.11;51.65;99889.78;4448800;32;33156;-77
2023/04/18 08:57:07;;;;;;;4.18;1.90;;;;;;;18.17;51.69;99889.88;4444897;32;33432;-76
2023/04/18 08:59:35;;;;;;;4.12;1.87;;;;;;;18.69;50.35;99884.50;4441332;32;33135;-78
2023/04/18 09:02:05;;;;;;;4.17;1.60;;;;;;;18.78;49.94;99889.88;4451020;32;34091;-75
2023/04/18 09:04:35;;;;;;;5.72;2.00;;;;;;;19.05;50.09;99900.72;4437833;32;33140;-75
2023/04/18 09:07:06;;;;;;;5.73;2.20;;;;;;;18.91;49.48;99894.44;4422149;32;948777;-76
2023/04/18 09:09:44;;;;;;;5.05;2.00;;;;;;;19.82;47.28;99891.03;4450015;32;33846;-76
2023/04/18 09:12:16;;;;;;;5.00;1.80;;;;;;;20.09;45.78;99884.25;4451948;32;33042;-75
2023/04/18 09:14:46;;;;;;;4.65;2.03;;;;;;;19.64;47.60;99885.56;4447830;32;33007;-75
2023/04/18 09:17:17;;;;;;;6.68;2.15;;;;;;;19.44;48.75;99881.00;4445564;32;33465;-78
2023/04/18 09:19:47;;;;;;;5.47;2.10;;;;;;;19.11;48.88;99888.53;4439979;32;32759;-78
2023/04/18 09:22:16;;;;;;;5.12;2.00;;;;;;;19.55;47.99;99885.53;4450276;32;33538;-75
2023/04/18 09:24:54;;;;;;;5.68;1.70;;;;;;;20.12;46.01;99879.00;4451308;32;33209;-77
2023/04/18 09:27:23;;;;;;;4.50;1.90;;;;;;;20.05;46.27;99882.47;4444206;32;33018;-77
2023/04/18 09:29:53;;;;;;;5.22;2.00;;;;;;;19.36;48.34;99900.22;4437007;32;33099;-76
2023/04/18 09:32:26;;;;;;;5.43;1.92;;;;;;;19.58;45.95;99890.78;4448903;32;34030;-76
2023/04/18 09:34:56;;;;;;;4.77;2.20;;;;;;;19.69;46.23;99889.13;4450535;32;32798;-76
2023/04/18 09:37:25;;;;;;;4.53;1.70;;;;;;;19.76;46.01;99891.00;4452732;32;33184;-77
2023/04/18 09:39:53;;;;;;;4.25;1.90;;;;;;;19.73;46.49;99890.09;4450414;32;34530;-75
2023/04/18 09:42:21;;;;;;;5.22;2.00;;;;;;;19.61;46.46;99890.81;4449968;32;33729;-76
2023/04/18 09:45:03;;;;;;;3.80;1.75;;;;;;;19.01;47.73;99893.69;4450635;32;34141;-76
2023/04/18 09:47:36;;;;;;;5.20;1.75;;;;;;;18.72;48.54;99884.53;4439953;32;31745;-77
2023/04/18 09:50:06;;;;;;;3.40;1.60;;;;;;;18.97;47.84;99891.88;4440885;32;34099;-79
2023/04/18 09:52:36;;;;;;;3.70;1.50;;;;;;;18.79;47.91;99894.22;4452566;32;33953;-76
2023/04/18 09:55:06;;;;;;;3.87;1.62;;;;;;;19.13;47.60;99894.69;4452411;32;33410;-77
2023/04/18 09:57:35;;;;;;;6.18;2.20;;;;;;;19.27;46.48;99890.47;4451883;32;33316;-76
2023/04/18 10:00:16;;;;;;;3.50;1.55;;;;;;;19.87;45.91;99895.47;4427468;32;33203;-77
2023/04/18 10:02:53;;;;;;;3.62;1.50;;;;;;;19.76;45.23;99895.34;4447200;32;31533;-76
2023/04/18 10:05:25;;;;;;;5.25;1.62;;;;;;;19.78;45.22;99884.00;4435718;32;32591;-77
2023/04/18 10:07:54;;;;;;;4.70;1.70;;;;;;;19.67;45.77;99880.38;4452967;32;33339;-77
2023/04/18 10:10:21;;;;;;;4.45;1.80;;;;;;;19.37;46.13;99881.84;4442086;32;33667;-76
2023/04/18 10:12:54;;;;;;;4.22;1.45;;;;;;;19.86;46.34;99885.78;4468353;32;33432;-76
2023/04/18 10:15:25;;;;;;;4.70;1.62;;;;;;;19.89;45.91;99885.84;4468536;32;32945;-78
2023/04/18 10:17:55;;;;;;;4.15;1.65;;;;;;;19.56;45.21;99887.25;4458207;32;34273;-77
2023/04/18 10:20:33;;;;;;;7.47;1.90;;;;;;;19.42;45.23;99889.75;4466858;32;32999;-77
2023/04/18 10:23:30;;;;;;;3.53;1.60;;;;;;;19.82;45.67;99890.19;4457234;32;34128;-77
2023/04/18 10:25:58;;;;;;;3.37;1.50;;;;;;;20.69;42.23;99881.16;4464274;32;33564;-77
2023/04/18 10:28:26;;;;;;;3.90;1.70;;;;;;;20.11;44.23;99874.62;4457779;32;34108;-78
2023/04/18 10:31:01;;;;;;;3.90;1.50;;;;;;;20.41;43.41;99886.22;4467965;32;34659;-77
2023/04/18 10:33:29;;;;;;;3.75;1.50;;;;;;;19.97;44.82;99885.03;4467811;32;33295;-78
2023/04/18 10:36:13;;;;;;;3.85;1.52;;;;;;;20.53;42.72;99875.78;4468023;32;33201;-78
2023/04/18 10:38:52;;;;;;;5.35;1.70;;;;;;;20.54;41.93;99882.78;4454086;32;33017;-78
2023/04/18 10:41:27;;;;;;;3.97;1.50;;;;;;;20.85;41.46;99876.84;4467741;32;33255;-76
2023/04/18 10:44:17;;;;;;;3.58;1.70;;;;;;;20.87;42.12;99878.59;4467661;32;33016;-77
2023/04/18 10:46:51;;;;;;;3.40;1.58;;;;;;;20.97;43.49;99875.09;4461676;32;33041;-77
2023/04/18 10:49:25;;;;;;;3.65;1.65;;;;;;;21.17;42.41;99874.28;4467722;32;33448;-78
2023/04/18 10:51:57;;;;;;;3.87;1.80;;;;;;;21.52;40.56;99871.78;4468070;32;33130;-78
2023/04/18 10:54:31;;;;;;;5.28;1.90;;;;;;;21.14;40.96;99869.03;4451097;32;35109;-77
2023/04/18 10:57:02;;;;;;;3.92;1.70;;;;;;;20.59;43.53;99867.94;4467736;32;32669;-77
2023/04/18 10:59:31;;;;;;;4.15;1.80;;;;;;;20.51;43.21;99866.97;4467661;32;34117;-77
2023/04/18 11:02:21;;;;;;;4.65;1.98;;;;;;;20.69;43.97;99871.50;4467901;32;33772;-77
2023/04/18 11:04:53;;;;;;;3.85;1.83;;;;;;;20.16;45.37;99865.00;4466367;32;32891;-76
2023/04/18 11:07:44;;;;;;;4.15;2.05;;;;;;;19.77;46.79;99869.09;4456682;32;33439;-75
2023/04/18 11:10:16;;;;;;;4.47;1.90;;;;;;;20.45;45.13;99861.66;4464903;32;33076;-76
2023/04/18 11:12:44;;;;;;;4.90;2.05;;;;;;;19.39;48.07;99868.69;4465132;32;33265;-78
2023/04/18 11:15:16;;;;;;;5.45;1.80;;;;;;;19.75;46.05;99862.94;4441397;32;33224;-76
2023/04/18 11:17:44;;;;;;;3.90;1.87;;;;;;;19.36;45.62;99869.56;4460387;32;32645;-76
2023/04/18 11:20:13;;;;;;;4.80;1.90;;;;;;;19.86;45.85;99865.66;4455006;32;34541;-77
2023/04/18 11:22:57;;;;;;;3.47;1.80;;;;;;;19.97;45.82;99863.09;4461235;32;33648;-78
2023/04/18 11:25:30;;;;;;;3.50;1.67;;;;;;;19.58;46.81;99865.38;4459128;32;33734;-77
2023/04/18 11:28:00;;;;;;;4.15;1.90;;;;;;;19.63;46.51;99868.06;4467648;32;33554;-78
2023/04/18 11:30:38;;;;;;;4.12;1.90;;;;;;;20.21;45.15;99867.69;4466309;32;33784;-77
2023/04/18 11:33:10;;;;;;;4.63;1.60;;;;;;;19.71;46.36;99876.91;4441323;32;32562;-76
2023/04/18 11:35:42;;;;;;;5.15;1.80;;;;;;;19.96;43.61;99871.87;4467932;32;34098;-77
2023/04/18 11:38:14;;;;;;;3.90;1.60;;;;;;;20.07;43.15;99864.97;4467357;32;33906;-76
2023/04/18 11:40:48;;;;;;;4.43;1.53;;;;;;;19.99;44.57;99866.63;4461190;32;33995;-76
2023/04/18 11:43:22;;;;;;;3.53;1.60;;;;;;;20.02;42.26;99869.28;4466476;32;33223;-76
2023/04/18 11:45:58;;;;;;;4.37;1.70;;;;;;;19.80;43.19;99873.50;4463621;32;33472;-77
2023/04/18 11:48:40;;;;;;;3.55;1.58;;;;;;;19.42;44.52;99874.88;4460273;32;33684;-76